Time;durP1;ratioP1;P1;durP2;ratioP2;P2;SDS_P1;SDS_P2;PMS_P1;PMS_P2;Temp;Humidity;BMP_temperature;BMP_pressure;BME280_temperature;BME280_humidity;BME280_pressure;Samples;Min_cycle;Max_cycle;Signal;HPM_P1;HPM_P2
2022/06/06 00:01:00;;;;;;;5.15;2.88;;;19.40;99.90;;;;;;5002933;28;20050;-60
2022/06/06 00:03:27;;;;;;;;;;;19.40;99.90;;;;;;4974592;28;20050;-58
2022/06/06 00:05:53;;;;;;;3.38;2.35;;;19.40;99.90;;;;;;4993375;28;19928;-58
2022/06/06 00:08:19;;;;;;;;;;;19.40;99.90;;;;;;4990555;28;20054;-59
2022/06/06 00:10:46;;;;;;;4.80;2.85;;;19.40;99.90;;;;;;4999652;28;19921;-59
2022/06/06 00:13:14;;;;;;;4.38;2.65;;;19.40;99.90;;;;;;5000835;28;20546;-59
2022/06/06 00:15:40;;;;;;;5.07;2.85;;;19.40;99.90;;;;;;4994820;28;20034;-60
2022/06/06 00:18:06;;;;;;;;;;;19.40;99.90;;;;;;4992841;28;20537;-60
2022/06/06 00:20:32;;;;;;;4.50;2.92;;;19.40;99.90;;;;;;4979477;28;20262;-59
2022/06/06 00:23:00;;;;;;;6.35;3.33;;;19.40;99.90;;;;;;4989124;28;20042;-59
2022/06/06 00:25:28;;;;;;;4.03;2.55;;;19.40;99.90;;;;;;4996029;28;20042;-60
2022/06/06 00:27:54;;;;;;;3.97;2.58;;;19.30;99.90;;;;;;4997669;28;20110;-60
2022/06/06 00:30:19;;;;;;;;;;;19.40;99.90;;;;;;4992423;28;21749;-58
2022/06/06 00:35:30;;;;;;;3.97;2.63;;;19.40;99.90;;;;;;4989500;28;20475;-59
2022/06/06 00:37:56;;;;;;;;;;;19.40;99.90;;;;;;4992345;28;20077;-59
2022/06/06 00:40:24;;;;;;;4.67;2.63;;;19.40;99.90;;;;;;4990319;28;20033;-61
2022/06/06 00:42:50;;;;;;;4.38;2.45;;;19.40;99.90;;;;;;5010244;28;20050;-60
2022/06/06 00:45:15;;;;;;;3.75;2.50;;;19.40;99.90;;;;;;5009404;28;20061;-60
2022/06/06 00:47:41;;;;;;;;;;;19.40;99.90;;;;;;5010100;28;20046;-59
2022/06/06 00:50:21;;;;;;;4.15;2.42;;;19.30;99.90;;;;;;5009544;28;19918;-65
2022/06/06 00:52:51;;;;;;;3.85;2.38;;;19.30;99.90;;;;;;4990806;28;20066;-59
2022/06/06 00:55:24;;;;;;;4.55;2.47;;;19.40;99.90;;;;;;4988627;28;20046;-59
2022/06/06 00:58:03;;;;;;;4.25;2.60;;;19.40;99.90;;;;;;4986483;28;20383;-59
2022/06/06 01:00:30;;;;;;;3.22;2.20;;;19.30;99.90;;;;;;5009524;28;20050;-59
2022/06/06 01:03:00;;;;;;;3.10;1.95;;;19.30;99.90;;;;;;5010351;28;20054;-61
2022/06/06 01:05:27;;;;;;;6.22;2.60;;;19.30;99.90;;;;;;5009155;28;20794;-59
2022/06/06 01:07:53;;;;;;;3.65;2.40;;;19.30;99.90;;;;;;4992405;28;20121;-59
2022/06/06 01:10:20;;;;;;;3.72;2.08;;;19.30;99.90;;;;;;5001514;28;20475;-59
2022/06/06 01:12:49;;;;;;;3.72;2.28;;;19.30;99.90;;;;;;4992674;28;20208;-59
2022/06/06 01:15:17;;;;;;;3.17;2.08;;;19.30;99.90;;;;;;5009112;28;20495;-59
2022/06/06 01:18:12;;;;;;;3.50;2.40;;;19.30;99.90;;;;;;5010188;28;20045;-59
2022/06/06 01:20:56;;;;;;;3.53;2.15;;;19.30;99.90;;;;;;5009880;28;20387;-60
2022/06/06 01:23:30;;;;;;;2.85;1.98;;;19.40;99.90;;;;;;5009244;28;20053;-62
2022/06/06 01:26:19;;;;;;;3.28;2.10;;;19.30;99.90;;;;;;4992201;28;20059;-58
2022/06/06 01:29:00;;;;;;;3.28;2.00;;;19.30;99.90;;;;;;4992168;28;20157;-59
2022/06/06 01:32:03;;;;;;;3.17;2.08;;;19.30;99.90;;;;;;5009482;28;20046;-59
2022/06/06 01:34:33;;;;;;;2.88;2.10;;;19.30;99.90;;;;;;4994206;28;20064;-59
2022/06/06 01:36:59;;;;;;;3.38;1.90;;;19.30;99.90;;;;;;5011709;28;20046;-58
2022/06/06 01:39:27;;;;;;;4.43;2.38;;;19.30;99.90;;;;;;5011917;28;20550;-58
2022/06/06 01:42:15;;;;;;;2.83;1.75;;;19.30;99.90;;;;;;5012097;28;20034;-58
2022/06/06 01:44:52;;;;;;;3.85;1.95;;;19.30;99.90;;;;;;5013121;28;20038;-57
2022/06/06 01:47:43;;;;;;;2.88;1.92;;;19.30;99.90;;;;;;5012786;28;20046;-58
2022/06/06 01:50:11;;;;;;;3.03;1.92;;;19.30;99.90;;;;;;5005657;28;20042;-57
2022/06/06 01:52:59;;;;;;;3.60;2.00;;;19.30;99.90;;;;;;4976971;28;20046;-59
2022/06/06 01:55:28;;;;;;;3.03;2.05;;;19.30;99.90;;;;;;4991835;28;20041;-58
2022/06/06 01:58:00;;;;;;;2.38;1.88;;;19.30;99.90;;;;;;4994181;28;20395;-58
2022/06/06 02:00:26;;;;;;;3.17;2.15;;;19.30;99.90;;;;;;4993371;28;20089;-58
2022/06/06 02:02:52;;;;;;;4.03;2.10;;;19.30;99.90;;;;;;4994035;28;20039;-58
2022/06/06 02:05:18;;;;;;;;;;;19.30;99.90;;;;;;4993438;28;20042;-58
2022/06/06 02:07:44;;;;;;;3.10;1.95;;;19.30;99.90;;;;;;4993953;28;19928;-58
2022/06/06 02:10:11;;;;;;;4.28;2.50;;;19.30;99.90;;;;;;5002290;28;20042;-59
2022/06/06 02:12:38;;;;;;;2.97;2.03;;;19.30;99.90;;;;;;5007243;28;20113;-58
2022/06/06 02:15:06;;;;;;;2.88;2.08;;;19.30;99.90;;;;;;4994424;28;20180;-59
2022/06/06 02:17:31;;;;;;;3.80;1.98;;;19.30;99.90;;;;;;5010585;28;20064;-58
2022/06/06 02:19:57;;;;;;;;;;;19.30;99.90;;;;;;4993875;28;20038;-58
2022/06/06 02:22:23;;;;;;;3.85;2.20;;;19.30;99.90;;;;;;4993168;28;20401;-58
2022/06/06 02:24:49;;;;;;;;;;;19.30;99.90;;;;;;4974983;28;20487;-58
2022/06/06 02:27:14;;;;;;;3.55;2.00;;;19.30;99.90;;;;;;4992827;28;19918;-63
2022/06/06 02:29:41;;;;;;;;;;;19.30;99.90;;;;;;4993736;28;20049;-59
2022/06/06 02:32:08;;;;;;;2.90;1.90;;;19.30;99.90;;;;;;4993280;28;20387;-59
2022/06/06 02:34:34;;;;;;;3.97;2.30;;;19.30;99.90;;;;;;4992086;28;20050;-60
2022/06/06 02:37:00;;;;;;;2.72;1.80;;;19.30;99.90;;;;;;4992993;28;20050;-58
2022/06/06 02:39:26;;;;;;;;;;;19.30;99.90;;;;;;4991072;28;20053;-57
2022/06/06 02:41:51;;;;;;;3.65;2.40;;;19.30;99.90;;;;;;5009950;28;19940;-58
2022/06/06 02:44:17;;;;;;;;;;;19.30;99.90;;;;;;4993675;28;20479;-63
2022/06/06 02:46:43;;;;;;;4.65;2.05;;;19.30;99.90;;;;;;4999477;28;20051;-58
2022/06/06 02:49:09;;;;;;;;;;;19.30;99.90;;;;;;4993334;28;20042;-58
2022/06/06 02:51:34;;;;;;;3.97;2.03;;;19.30;99.90;;;;;;4992134;28;20363;-58
2022/06/06 02:54:01;;;;;;;;;;;19.30;99.90;;;;;;4992664;28;20046;-58
2022/06/06 02:56:27;;;;;;;4.35;2.20;;;19.30;99.90;;;;;;4991608;28;20016;-58
2022/06/06 02:58:55;;;;;;;4.47;2.10;;;19.30;99.90;;;;;;4975334;28;20046;-58
2022/06/06 03:01:21;;;;;;;2.95;1.90;;;19.30;99.90;;;;;;5005597;28;20046;-57
2022/06/06 03:03:47;;;;;;;3.63;1.90;;;19.30;99.90;;;;;;4998031;28;20695;-58
2022/06/06 03:06:15;;;;;;;;;;;19.20;99.90;;;;;;4995071;28;20133;-58
2022/06/06 03:08:51;;;;;;;4.72;2.40;;;19.30;99.90;;;;;;5011711;28;19922;-57
2022/06/06 03:11:34;;;;;;;4.20;2.28;;;19.30;99.90;;;;;;4992409;28;20089;-58
2022/06/06 03:14:09;;;;;;;5.78;2.55;;;19.20;99.90;;;;;;4992641;28;20128;-57
2022/06/06 03:23:16;;;;;;;4.75;2.30;;;19.20;99.90;;;;;;5006672;28;20086;-57
2022/06/06 03:25:48;;;;;;;4.95;2.40;;;19.20;99.90;;;;;;4999204;28;20057;-58
2022/06/06 03:28:36;;;;;;;4.85;2.03;;;19.20;99.90;;;;;;5012090;28;20058;-57
2022/06/06 03:31:21;;;;;;;4.25;2.00;;;19.30;99.90;;;;;;5011827;28;20077;-58
2022/06/06 03:34:16;;;;;;;6.00;2.28;;;19.20;99.90;;;;;;5011980;28;20046;-61
2022/06/06 03:36:59;;;;;;;4.28;2.10;;;19.20;99.90;;;;;;4989495;28;20049;-58
2022/06/06 03:39:46;;;;;;;4.47;2.00;;;19.30;99.90;;;;;;5006814;28;20424;-57
2022/06/06 03:42:28;;;;;;;5.28;2.58;;;19.30;99.90;;;;;;4991317;28;20085;-59
2022/06/06 03:45:09;;;;;;;3.50;2.15;;;19.20;99.90;;;;;;4991587;28;20097;-57
2022/06/06 03:48:12;;;;;;;4.32;2.58;;;19.20;99.90;;;;;;4990867;28;20042;-58
2022/06/06 03:50:49;;;;;;;3.63;1.92;;;19.30;99.90;;;;;;4991277;28;20407;-58
2022/06/06 03:53:19;;;;;;;4.88;2.30;;;19.20;99.90;;;;;;4992378;28;20082;-57
2022/06/06 03:56:25;;;;;;;4.45;2.22;;;19.20;99.90;;;;;;4990274;28;20483;-58
2022/06/06 03:58:53;;;;;;;4.07;2.17;;;19.20;99.90;;;;;;5004656;28;20046;-58
2022/06/06 04:01:21;;;;;;;3.47;1.90;;;19.20;99.90;;;;;;5011244;28;20387;-58
2022/06/06 04:03:49;;;;;;;5.20;2.13;;;19.20;99.90;;;;;;5002997;28;20124;-58
2022/06/06 04:06:18;;;;;;;3.70;1.98;;;19.20;99.90;;;;;;4991619;28;20415;-58
2022/06/06 04:08:44;;;;;;;4.10;1.75;;;19.20;99.90;;;;;;4991113;28;20046;-58
2022/06/06 04:11:22;;;;;;;;;;;19.20;99.90;;;;;;4990385;28;20129;-58
2022/06/06 04:13:54;;;;;;;3.10;1.88;;;19.20;99.90;;;;;;4991279;28;19961;-58
2022/06/06 04:16:31;;;;;;;4.78;2.08;;;19.20;99.90;;;;;;4991684;28;20073;-58
2022/06/06 04:19:12;;;;;;;3.17;1.63;;;19.20;99.90;;;;;;4991485;28;20085;-58
2022/06/06 04:21:54;;;;;;;4.65;2.00;;;19.20;99.90;;;;;;4983931;28;20428;-58
2022/06/06 04:24:42;;;;;;;5.25;2.53;;;19.20;99.90;;;;;;5010224;28;20054;-59
2022/06/06 04:27:20;;;;;;;5.00;1.85;;;19.20;99.90;;;;;;4982802;28;20053;-58
2022/06/06 04:30:06;;;;;;;3.40;2.10;;;19.20;99.90;;;;;;5010498;28;20056;-58
2022/06/06 04:32:39;;;;;;;2.67;1.60;;;19.20;99.90;;;;;;5010734;28;20046;-57
2022/06/06 04:35:09;;;;;;;3.85;1.70;;;19.20;99.90;;;;;;5010040;28;20037;-58
2022/06/06 04:37:43;;;;;;;4.07;1.85;;;19.20;99.90;;;;;;4992681;28;20082;-57
2022/06/06 04:40:13;;;;;;;4.22;1.92;;;19.20;99.90;;;;;;4989749;28;20050;-59
2022/06/06 04:42:42;;;;;;;2.92;1.83;;;19.20;99.90;;;;;;4973736;28;20046;-57
2022/06/06 04:45:14;;;;;;;3.03;1.70;;;19.20;99.90;;;;;;4992025;28;20046;-59
2022/06/06 04:47:42;;;;;;;3.70;1.70;;;19.20;99.90;;;;;;5010533;28;20129;-57
2022/06/06 04:50:11;;;;;;;3.80;1.90;;;19.20;99.90;;;;;;5010286;28;20387;-59
2022/06/06 04:52:41;;;;;;;5.32;2.33;;;19.20;99.90;;;;;;5010436;28;20038;-58
2022/06/06 04:55:09;;;;;;;4.15;1.92;;;19.20;99.90;;;;;;5009334;28;20562;-59
2022/06/06 04:57:37;;;;;;;5.28;1.95;;;19.20;99.90;;;;;;4998156;28;20085;-58
2022/06/06 05:00:07;;;;;;;3.35;1.80;;;19.20;99.90;;;;;;4991008;28;20042;-58
2022/06/06 05:02:34;;;;;;;4.32;1.83;;;19.20;99.90;;;;;;5009800;28;20041;-58
2022/06/06 05:05:00;;;;;;;3.92;2.15;;;19.20;99.90;;;;;;4993217;28;20431;-58
2022/06/06 05:07:29;;;;;;;;;;;19.20;99.90;;;;;;5011964;28;20046;-58
2022/06/06 05:10:30;;;;;;;4.20;2.00;;;19.20;99.90;;;;;;5010364;28;19945;-57
2022/06/06 05:13:32;;;;;;;3.85;1.75;;;19.20;99.90;;;;;;4994940;28;20042;-59
2022/06/06 05:16:03;;;;;;;4.03;1.80;;;19.20;99.90;;;;;;4913478;28;20038;-58
2022/06/06 05:19:04;;;;;;;3.75;1.75;;;19.10;99.90;;;;;;4994554;28;20097;-63
2022/06/06 05:21:37;;;;;;;3.90;2.00;;;19.20;99.90;;;;;;4971862;28;20438;-63
2022/06/06 05:24:26;;;;;;;3.17;1.67;;;19.20;99.90;;;;;;5013165;28;20057;-57
2022/06/06 05:27:25;;;;;;;3.38;1.88;;;19.10;99.90;;;;;;5012540;28;20483;-59
2022/06/06 05:30:31;;;;;;;3.47;1.70;;;19.10;99.90;;;;;;5013850;28;20857;-58
2022/06/06 05:32:56;;;;;;;3.78;2.08;;;19.10;99.90;;;;;;5014001;28;20054;-58
2022/06/06 05:35:22;;;;;;;;;;;19.10;99.90;;;;;;5014046;28;20046;-58
2022/06/06 05:38:08;;;;;;;3.40;2.08;;;19.20;99.90;;;;;;5013020;28;19944;-58
2022/06/06 05:40:38;;;;;;;3.00;1.60;;;19.10;99.90;;;;;;5003107;28;20057;-58
2022/06/06 05:43:09;;;;;;;3.40;1.80;;;19.10;99.90;;;;;;4994374;28;20046;-57
2022/06/06 05:45:38;;;;;;;3.95;1.73;;;19.10;99.90;;;;;;4994060;28;20041;-58
2022/06/06 05:48:17;;;;;;;3.30;1.48;;;19.10;99.90;;;;;;4994295;28;20042;-59
2022/06/06 05:51:20;;;;;;;4.78;1.80;;;19.20;99.90;;;;;;4993506;28;20053;-58
2022/06/06 05:54:05;;;;;;;4.30;2.00;;;19.10;99.90;;;;;;4993687;28;20050;-57
2022/06/06 05:57:01;;;;;;;4.20;1.83;;;19.20;99.90;;;;;;5008709;28;20042;-63
2022/06/06 05:59:45;;;;;;;4.20;1.73;;;19.10;99.90;;;;;;5012501;28;20074;-59
2022/06/06 06:02:13;;;;;;;3.63;1.77;;;19.10;99.90;;;;;;5013658;28;20076;-58
2022/06/06 06:05:11;;;;;;;2.70;1.50;;;19.10;99.90;;;;;;5012874;28;20048;-58
2022/06/06 06:08:06;;;;;;;3.55;1.70;;;19.10;99.90;;;;;;4995117;28;20399;-58
2022/06/06 06:10:57;;;;;;;5.72;1.90;;;19.10;99.90;;;;;;4999192;28;20050;-63
2022/06/06 06:13:26;;;;;;;3.40;1.48;;;19.10;99.90;;;;;;5001306;28;20437;-58
2022/06/06 06:15:53;;;;;;;4.32;1.85;;;19.10;99.90;;;;;;5012345;28;20045;-58
2022/06/06 06:18:30;;;;;;;4.90;2.33;;;19.10;99.90;;;;;;5012953;28;20054;-59
2022/06/06 06:21:04;;;;;;;3.65;1.40;;;19.10;99.90;;;;;;5011647;28;20041;-57
2022/06/06 06:23:34;;;;;;;3.38;1.60;;;19.20;99.90;;;;;;5012689;28;20045;-58
2022/06/06 06:26:05;;;;;;;4.68;1.65;;;19.20;99.90;;;;;;5010643;28;20069;-57
2022/06/06 06:28:34;;;;;;;3.58;1.50;;;19.10;99.90;;;;;;5013054;28;20395;-58
2022/06/06 06:31:35;;;;;;;4.35;1.80;;;19.10;99.90;;;;;;5012087;28;20368;-57
2022/06/06 06:34:12;;;;;;;3.92;1.92;;;19.10;99.90;;;;;;5012596;28;20125;-58
2022/06/06 06:36:55;;;;;;;3.97;1.70;;;19.10;99.90;;;;;;4994677;28;20044;-59
2022/06/06 06:39:36;;;;;;;3.65;1.80;;;19.10;99.90;;;;;;4994249;28;20474;-58
2022/06/06 06:42:32;;;;;;;3.20;1.25;;;19.10;99.90;;;;;;5001960;28;20484;-58
2022/06/06 06:45:09;;;;;;;3.55;1.60;;;19.10;99.90;;;;;;4992872;28;20088;-58
2022/06/06 06:47:36;;;;;;;3.08;1.50;;;19.10;99.90;;;;;;4976150;28;20475;-58
2022/06/06 06:50:21;;;;;;;3.90;1.70;;;19.10;99.90;;;;;;4992847;28;20049;-58
2022/06/06 06:53:05;;;;;;;4.05;1.63;;;19.20;99.90;;;;;;5012243;28;20053;-58
2022/06/06 06:55:53;;;;;;;5.32;1.70;;;19.20;99.90;;;;;;4986047;28;20054;-58
2022/06/06 06:58:51;;;;;;;3.67;1.80;;;19.20;99.90;;;;;;4993051;28;20042;-58
2022/06/06 07:10:50;;;;;;;4.55;2.17;;;19.20;99.90;;;;;;5006424;28;20053;-62
2022/06/06 07:13:53;;;;;;;3.78;1.40;;;19.20;99.90;;;;;;5012309;28;20057;-59
2022/06/06 07:16:24;;;;;;;3.67;2.15;;;19.20;99.90;;;;;;5011879;28;20476;-58
2022/06/06 07:19:11;;;;;;;5.88;2.00;;;19.20;99.90;;;;;;5011436;28;20041;-59
2022/06/06 07:21:39;;;;;;;3.80;1.73;;;19.20;99.90;;;;;;4994523;28;20050;-57
2022/06/06 07:24:07;;;;;;;5.13;1.60;;;19.20;99.90;;;;;;5008241;28;20073;-58
2022/06/06 07:26:41;;;;;;;3.45;1.75;;;19.20;99.90;;;;;;4994832;28;20249;-58
2022/06/06 07:29:08;;;;;;;2.88;1.60;;;19.20;99.90;;;;;;5002653;28;20046;-60
2022/06/06 07:31:45;;;;;;;3.65;1.70;;;19.20;99.90;;;;;;5011350;28;20077;-58
2022/06/06 07:34:37;;;;;;;;;;;19.20;99.90;;;;;;5012322;28;20147;-58
2022/06/06 07:37:28;;;;;;;3.30;1.58;;;19.20;99.90;;;;;;4980651;28;19925;-59
2022/06/06 07:40:17;;;;;;;3.83;1.75;;;19.20;99.90;;;;;;5007730;28;20646;-58
2022/06/06 07:43:11;;;;;;;4.40;1.90;;;19.20;99.90;;;;;;5008265;28;20045;-60
2022/06/06 07:45:50;;;;;;;2.97;1.45;;;19.20;99.90;;;;;;5009207;28;20049;-59
2022/06/06 07:48:54;;;;;;;4.68;1.95;;;19.20;99.90;;;;;;5009517;28;20521;-60
2022/06/06 07:51:57;;;;;;;3.65;1.90;;;19.20;99.90;;;;;;4955180;28;20502;-59
2022/06/06 07:54:29;;;;;;;5.07;1.83;;;19.20;99.90;;;;;;4993886;28;20092;-59
2022/06/06 07:57:17;;;;;;;9.95;4.70;;;19.30;99.90;;;;;;5009892;28;20042;-57
2022/06/06 08:00:11;;;;;;;9.65;3.15;;;19.30;99.90;;;;;;4993385;28;20475;-64
2022/06/06 08:02:57;;;;;;;9.15;3.88;;;19.20;99.90;;;;;;4993309;28;20069;-58
2022/06/06 08:05:44;;;;;;;7.90;3.97;;;19.20;99.90;;;;;;4993488;28;20049;-58
2022/06/06 08:08:28;;;;;;;;;;;19.20;99.90;;;;;;5011788;28;20092;-58
2022/06/06 08:11:03;;;;;;;8.90;3.50;;;19.20;99.90;;;;;;5007055;28;20378;-58
2022/06/06 08:13:29;;;;;;;7.07;2.78;;;19.20;99.90;;;;;;5006090;28;20037;-58
2022/06/06 08:16:05;;;;;;;;;;;19.20;99.90;;;;;;5011038;28;20081;-60
2022/06/06 08:18:55;;;;;;;9.15;3.58;;;19.20;99.90;;;;;;5011581;28;20003;-58
2022/06/06 08:21:40;;;;;;;8.48;3.55;;;19.30;99.90;;;;;;5011059;28;20041;-58
2022/06/06 08:24:27;;;;;;;7.07;2.58;;;19.30;99.90;;;;;;5009656;28;20041;-58
2022/06/06 08:26:55;;;;;;;4.72;2.47;;;19.30;99.90;;;;;;5009720;28;20042;-59
2022/06/06 08:29:22;;;;;;;6.15;2.67;;;19.30;99.90;;;;;;4986970;28;20052;-60
2022/06/06 08:31:48;;;;;;;7.63;3.25;;;19.30;99.90;;;;;;4992925;28;20050;-59
2022/06/06 08:34:14;;;;;;;;;;;19.30;99.90;;;;;;4999007;28;20480;-59
2022/06/06 08:37:16;;;;;;;8.07;2.67;;;19.30;99.90;;;;;;5001737;28;19917;-59
2022/06/06 08:40:12;;;;;;;5.13;2.20;;;19.30;99.90;;;;;;5004801;28;20065;-59
2022/06/06 08:42:50;;;;;;;7.35;2.65;;;19.30;99.90;;;;;;5010173;28;20092;-60
2022/06/06 08:45:15;;;;;;;6.43;2.60;;;19.30;99.90;;;;;;5007407;28;20033;-59
2022/06/06 08:47:53;;;;;;;;;;;19.30;99.90;;;;;;5014815;28;20168;-59
2022/06/06 08:54:03;;;;;;;5.78;2.08;;;19.30;99.90;;;;;;5005209;28;20049;-59
2022/06/06 08:57:19;;;;;;;6.43;2.30;;;19.30;99.90;;;;;;4923958;29;20123;-59
2022/06/06 09:00:09;;;;;;;5.45;2.05;;;19.40;99.90;;;;;;4899678;29;20135;-59
2022/06/06 09:03:16;;;;;;;6.00;2.08;;;19.40;99.90;;;;;;4965188;28;20058;-58
2022/06/06 09:06:00;;;;;;;2.85;1.80;;;19.40;99.90;;;;;;5003890;28;20073;-59
2022/06/06 09:09:05;;;;;;;3.88;1.85;;;19.40;99.90;;;;;;5014136;28;20100;-61
2022/06/06 09:12:12;;;;;;;1.80;1.50;;;19.40;99.90;;;;;;4967633;28;20519;-59
2022/06/06 09:14:55;;;;;;;4.22;1.70;;;19.40;99.90;;;;;;4966377;28;20049;-60
2022/06/06 09:17:30;;;;;;;4.90;1.98;;;19.40;99.90;;;;;;5014289;28;20475;-58
2022/06/06 09:20:18;;;;;;;2.97;1.75;;;19.40;99.90;;;;;;5013464;28;20368;-58
2022/06/06 09:23:08;;;;;;;4.05;1.50;;;19.40;99.90;;;;;;4996806;28;20050;-59
2022/06/06 09:25:54;;;;;;;2.72;1.83;;;19.40;99.90;;;;;;4997272;28;20053;-58
2022/06/06 09:28:43;;;;;;;2.50;1.42;;;19.40;99.90;;;;;;5007452;28;20133;-58
2022/06/06 09:31:26;;;;;;;4.45;1.48;;;19.40;99.90;;;;;;4983339;28;20131;-58
2022/06/06 09:34:03;;;;;;;2.15;1.30;;;19.40;99.90;;;;;;5000586;28;20072;-61
2022/06/06 09:36:57;;;;;;;2.97;1.60;;;19.40;99.90;;;;;;5012488;28;20046;-58
2022/06/06 09:39:41;;;;;;;2.63;1.58;;;19.40;99.90;;;;;;4993686;28;20054;-49
2022/06/06 09:42:51;;;;;;;3.90;1.75;;;19.40;99.90;;;;;;5003997;28;20054;-59
2022/06/06 09:45:26;;;;;;;7.60;2.05;;;19.50;99.90;;;;;;5009763;28;20045;-58
2022/06/06 09:48:11;;;;;;;5.57;1.80;;;19.40;99.90;;;;;;5013394;28;20121;-62
2022/06/06 09:50:48;;;;;;;3.80;1.55;;;19.40;99.90;;;;;;5013286;28;20414;-59
2022/06/06 09:53:32;;;;;;;5.15;1.85;;;19.40;99.90;;;;;;5003706;28;20487;-58
2022/06/06 09:59:48;;;;;;;2.50;1.60;;;19.40;99.90;;;;;;4953899;28;20054;-58
2022/06/06 10:02:32;;;;;;;4.57;2.00;;;19.40;99.90;;;;;;5009736;28;20497;-57
2022/06/06 10:05:10;;;;;;;2.92;1.80;;;19.40;99.90;;;;;;5002134;28;20048;-57
2022/06/06 10:08:13;;;;;;;4.60;1.50;;;19.40;99.90;;;;;;5008303;28;20034;-55
2022/06/06 10:10:50;;;;;;;7.13;1.52;;;19.40;99.90;;;;;;4995972;28;20126;-57
2022/06/06 10:13:30;;;;;;;2.45;1.33;;;19.40;99.90;;;;;;4997530;28;20054;-56
2022/06/06 10:16:37;;;;;;;2.33;1.27;;;19.40;99.90;;;;;;5001389;28;20039;-58
2022/06/06 10:19:08;;;;;;;2.63;1.58;;;19.50;99.90;;;;;;5009012;28;20192;-57
2022/06/06 10:21:52;;;;;;;3.13;1.50;;;19.50;99.90;;;;;;5011930;28;20134;-52
2022/06/06 10:24:41;;;;;;;1.85;1.10;;;19.50;99.90;;;;;;5010446;28;20053;-50
2022/06/06 10:27:27;;;;;;;3.42;1.27;;;19.60;99.90;;;;;;4993068;28;20440;-49
2022/06/06 10:30:31;;;;;;;2.45;1.17;;;19.60;99.90;;;;;;4991260;28;20065;-48
2022/06/06 10:33:09;;;;;;;1.23;1.00;;;19.60;99.90;;;;;;4913478;29;20095;-60
2022/06/06 10:35:34;;;;;;;0.90;0.90;;;19.60;99.90;;;;;;4911636;29;20134;-52
2022/06/06 10:38:12;;;;;;;;;;;19.70;99.90;;;;;;4955300;28;20082;-57
2022/06/06 10:40:48;;;;;;;3.47;1.40;;;19.70;99.90;;;;;;4989434;28;19917;-56
2022/06/06 10:43:47;;;;;;;2.45;0.90;;;19.70;99.90;;;;;;4992574;28;20434;-56
2022/06/06 10:46:46;;;;;;;5.35;1.45;;;19.70;99.90;;;;;;4990839;28;20061;-57
2022/06/06 10:49:23;;;;;;;1.48;0.95;;;19.80;99.90;;;;;;4990236;28;20476;-57
2022/06/06 10:52:12;;;;;;;1.35;1.23;;;19.80;99.90;;;;;;4990864;28;20046;-58
2022/06/06 10:55:03;;;;;;;1.13;0.93;;;19.80;99.90;;;;;;5001601;28;20462;-57
2022/06/06 10:57:52;;;;;;;4.72;1.52;;;19.80;99.90;;;;;;4990431;28;20090;-57
2022/06/06 11:00:20;;;;;;;1.63;1.00;;;19.80;99.90;;;;;;4990150;28;20050;-57
2022/06/06 11:03:23;;;;;;;3.00;1.00;;;19.80;99.90;;;;;;4992956;28;20042;-57
2022/06/06 11:06:32;;;;;;;1.70;0.93;;;19.90;99.90;;;;;;4989247;28;20046;-59
2022/06/06 11:09:17;;;;;;;0.88;0.80;;;19.90;99.90;;;;;;4989546;28;20053;-60
2022/06/06 11:12:01;;;;;;;1.27;0.90;;;19.90;99.90;;;;;;4989665;28;20548;-56
2022/06/06 11:14:45;;;;;;;1.63;1.00;;;19.90;99.90;;;;;;4990369;28;20042;-58
2022/06/06 11:17:29;;;;;;;2.45;0.70;;;19.90;99.90;;;;;;4988820;28;20046;-55
2022/06/06 11:20:11;;;;;;;1.02;0.73;;;19.90;99.90;;;;;;4990275;28;20087;-56
2022/06/06 11:22:48;;;;;;;0.90;0.75;;;19.90;99.90;;;;;;5003175;28;20355;-57
2022/06/06 11:25:17;;;;;;;1.35;0.90;;;19.90;99.90;;;;;;4987981;28;20042;-56
2022/06/06 11:28:04;;;;;;;2.22;0.88;;;19.90;99.90;;;;;;4990564;28;20075;-57
2022/06/06 11:30:49;;;;;;;1.17;0.75;;;19.90;99.90;;;;;;4989914;28;20038;-57
2022/06/06 11:34:04;;;;;;;1.33;0.70;;;19.90;99.90;;;;;;4993029;28;20042;-57
2022/06/06 11:36:53;;;;;;;0.70;0.70;;;19.90;99.90;;;;;;4947632;29;20166;-56
2022/06/06 11:39:36;;;;;;;0.93;0.90;;;19.90;99.90;;;;;;4999780;28;20085;-57
2022/06/06 11:42:43;;;;;;;2.13;0.85;;;19.90;99.90;;;;;;4990031;28;20101;-59
2022/06/06 11:45:26;;;;;;;2.80;0.80;;;19.90;99.90;;;;;;4974140;28;20050;-56
2022/06/06 11:48:11;;;;;;;0.90;0.90;;;19.90;99.90;;;;;;4991427;28;20046;-56
2022/06/06 11:51:10;;;;;;;1.58;0.90;;;19.90;99.90;;;;;;4989765;28;20054;-57
2022/06/06 11:54:02;;;;;;;1.00;0.90;;;19.90;99.90;;;;;;4995593;28;20042;-57
2022/06/06 11:56:46;;;;;;;0.80;0.80;;;19.90;99.90;;;;;;4959843;28;20042;-56
2022/06/06 11:59:37;;;;;;;0.60;0.50;;;19.90;99.90;;;;;;5002778;28;20050;-56
2022/06/06 12:02:24;;;;;;;3.45;0.70;;;19.90;99.90;;;;;;4990323;28;20390;-59
2022/06/06 12:05:08;;;;;;;0.75;0.75;;;19.90;99.90;;;;;;4989580;28;20038;-57
2022/06/06 12:08:06;;;;;;;0.70;0.70;;;19.90;99.90;;;;;;4990579;28;20050;-57
2022/06/06 12:11:11;;;;;;;2.15;0.90;;;19.90;99.90;;;;;;4968228;28;20113;-59
2022/06/06 12:13:46;;;;;;;0.90;0.80;;;19.90;99.90;;;;;;4989714;28;20064;-60
2022/06/06 12:16:24;;;;;;;2.97;0.88;;;19.90;99.90;;;;;;4996365;28;20076;-57
2022/06/06 12:19:05;;;;;;;0.73;0.73;;;19.90;99.90;;;;;;4992152;28;20058;-57
2022/06/06 12:21:33;;;;;;;3.53;0.93;;;19.90;99.90;;;;;;4991065;28;20043;-58
2022/06/06 12:24:30;;;;;;;1.88;0.93;;;19.90;99.90;;;;;;4990428;28;20097;-56
2022/06/06 12:27:18;;;;;;;1.58;0.90;;;19.90;99.90;;;;;;4990259;28;20058;-57
2022/06/06 12:30:17;;;;;;;1.13;0.93;;;19.90;99.90;;;;;;4992798;28;20046;-58
2022/06/06 12:33:09;;;;;;;0.85;0.80;;;19.90;99.90;;;;;;5003730;28;20480;-57
2022/06/06 12:35:39;;;;;;;1.02;0.60;;;19.90;99.90;;;;;;5010660;28;20045;-59
2022/06/06 12:38:11;;;;;;;2.03;0.80;;;19.80;99.90;;;;;;5011162;28;20053;-62
2022/06/06 12:41:11;;;;;;;1.58;0.57;;;19.80;99.90;;;;;;5009030;28;20054;-57
2022/06/06 12:43:55;;;;;;;1.70;0.80;;;19.80;99.90;;;;;;5011001;28;20128;-58
2022/06/06 12:46:42;;;;;;;0.77;0.77;;;19.80;99.90;;;;;;4994708;28;20104;-58
2022/06/06 12:49:14;;;;;;;0.68;0.68;;;19.90;99.90;;;;;;4990949;28;20050;-64
2022/06/06 12:51:48;;;;;;;1.20;0.82;;;19.80;99.90;;;;;;4998025;28;20130;-58
2022/06/06 12:58:13;;;;;;;0.80;0.80;;;19.80;99.90;;;;;;4949889;29;20071;-57
2022/06/06 13:04:27;;;;;;;0.70;0.70;;;19.80;99.90;;;;;;4991195;28;20077;-58
2022/06/06 13:07:53;;;;;;;1.42;0.80;;;19.80;99.90;;;;;;5004989;28;20045;-57
2022/06/06 13:11:02;;;;;;;0.68;0.68;;;19.80;99.90;;;;;;4972967;28;20058;-58
2022/06/06 13:14:02;;;;;;;0.65;0.65;;;19.90;99.90;;;;;;4956167;28;20050;-58
2022/06/06 13:16:54;;;;;;;1.38;0.82;;;19.80;99.90;;;;;;4991732;28;20092;-60
2022/06/06 13:19:43;;;;;;;0.93;0.80;;;19.80;99.90;;;;;;4990509;28;20042;-58
2022/06/06 13:22:30;;;;;;;0.60;0.60;;;19.80;99.90;;;;;;4999665;28;20048;-64
2022/06/06 13:25:12;;;;;;;1.25;0.98;;;19.80;99.90;;;;;;5009014;28;20057;-59
2022/06/06 13:27:40;;;;;;;0.95;0.80;;;19.80;99.90;;;;;;4991427;28;20062;-58
2022/06/06 13:30:29;;;;;;;1.23;0.85;;;19.80;99.90;;;;;;4997666;28;20078;-58
2022/06/06 13:33:18;;;;;;;1.33;0.90;;;19.80;99.90;;;;;;5007711;28;20085;-60
2022/06/06 13:36:21;;;;;;;0.70;0.70;;;19.80;99.90;;;;;;4994207;28;20460;-58
2022/06/06 13:39:05;;;;;;;1.20;0.70;;;19.80;99.90;;;;;;5015456;28;20053;-61
2022/06/06 13:41:58;;;;;;;0.70;0.70;;;19.80;99.90;;;;;;5012125;28;20625;-61
2022/06/06 13:44:34;;;;;;;0.77;0.77;;;19.80;99.90;;;;;;5012606;28;20054;-58
2022/06/06 13:47:33;;;;;;;0.90;0.90;;;19.80;99.90;;;;;;5002997;28;20049;-59
2022/06/06 13:50:11;;;;;;;0.95;0.70;;;19.80;99.90;;;;;;4996199;28;20050;-59
2022/06/06 13:52:44;;;;;;;1.02;0.80;;;19.80;99.90;;;;;;4994292;28;20042;-58
2022/06/06 13:55:34;;;;;;;1.08;0.80;;;19.80;99.90;;;;;;4995811;28;20122;-58
2022/06/06 13:58:24;;;;;;;2.13;0.63;;;19.80;99.90;;;;;;4991920;28;20594;-58
2022/06/06 14:01:11;;;;;;;0.68;0.60;;;19.80;99.90;;;;;;4993812;28;20392;-61
2022/06/06 14:04:00;;;;;;;;;;;19.80;99.90;;;;;;4994549;28;20034;-58
2022/06/06 14:06:36;;;;;;;0.68;0.60;;;19.80;99.90;;;;;;4960986;28;20395;-59
2022/06/06 14:09:01;;;;;;;0.65;0.65;;;19.80;99.90;;;;;;5003089;28;20038;-58
2022/06/06 14:11:42;;;;;;;;;;;19.80;99.90;;;;;;4992450;28;20386;-58
2022/06/06 14:14:08;;;;;;;0.65;0.65;;;19.80;99.90;;;;;;4999399;28;19968;-58
2022/06/06 14:16:41;;;;;;;0.63;0.63;;;19.80;99.90;;;;;;5006183;28;20050;-58
2022/06/06 14:19:21;;;;;;;0.70;0.60;;;19.80;99.90;;;;;;5008613;28;20052;-61
2022/06/06 14:21:53;;;;;;;0.80;0.77;;;19.80;99.90;;;;;;5010336;28;20487;-60
2022/06/06 14:24:22;;;;;;;1.90;1.23;;;19.80;99.90;;;;;;5008279;28;22318;-57
2022/06/06 14:27:01;;;;;;;2.13;1.45;;;19.80;99.90;;;;;;5002568;28;20369;-59
2022/06/06 14:29:32;;;;;;;0.90;0.90;;;19.80;99.90;;;;;;4999982;28;20046;-60
2022/06/06 14:32:07;;;;;;;3.25;1.30;;;19.70;99.90;;;;;;5004545;28;20110;-60